createdAt,value
2022-10-11T00:00:37.634Z,100388.20
2022-10-11T00:03:36.924Z,100389.20
2022-10-11T00:06:07.665Z,100391.00
2022-10-11T00:08:36.716Z,100391.40
2022-10-11T00:11:10.237Z,100390.80
2022-10-11T00:13:42.977Z,100400.60
2022-10-11T00:16:14.657Z,100398.40
2022-10-11T00:18:47.495Z,100401.40
2022-10-11T00:21:16.998Z,100408.20
2022-10-11T00:23:45.656Z,100405.40
2022-10-11T00:26:18.065Z,100406.20
2022-10-11T00:28:46.758Z,100411.00
2022-10-11T00:31:16.816Z,100415.80
2022-10-11T00:33:48.357Z,100415.80
2022-10-11T00:36:19.061Z,100424.40
2022-10-11T00:38:48.036Z,100429.40
2022-10-11T00:41:17.695Z,100426.00
2022-10-11T00:43:48.316Z,100422.40
2022-10-11T00:46:20.046Z,100418.00
2022-10-11T00:49:02.049Z,100418.00
2022-10-11T00:51:52.755Z,100420.00
2022-10-11T00:54:28.340Z,100421.00
2022-10-11T00:57:06.075Z,100423.20
2022-10-11T00:59:44.436Z,100424.00
2022-10-11T01:02:24.667Z,100424.00
2022-10-11T01:05:11.367Z,100433.40
2022-10-11T01:07:44.532Z,100428.20
2022-10-11T01:10:15.076Z,100438.60
2022-10-11T01:13:09.879Z,100436.00
2022-10-11T01:15:55.843Z,100432.80
2022-10-11T01:19:31.296Z,100438.40
2022-10-11T01:22:38.197Z,100436.60
2022-10-11T01:25:52.276Z,100438.20
2022-10-11T01:28:49.789Z,100436.20
2022-10-11T01:31:21.596Z,100442.00
2022-10-11T01:34:06.106Z,100447.60
2022-10-11T01:37:29.637Z,100447.60
2022-10-11T01:40:09.975Z,100451.00
2022-10-11T01:42:42.278Z,100455.80
2022-10-11T01:45:18.136Z,100459.40
2022-10-11T01:47:47.058Z,100461.60
2022-10-11T01:50:47.535Z,100464.00
2022-10-11T01:53:55.396Z,100470.60
2022-10-11T01:56:49.066Z,100467.20
2022-10-11T01:59:34.606Z,100471.80
2022-10-11T02:02:31.556Z,100481.80
2022-10-11T02:05:00.146Z,100486.60
2022-10-11T02:08:02.396Z,100488.80
2022-10-11T02:10:44.716Z,100493.40
2022-10-11T02:13:28.955Z,100490.40
2022-10-11T02:16:03.137Z,100495.00
2022-10-11T02:18:39.555Z,100495.00
2022-10-11T02:21:12.999Z,100498.40
2022-10-11T02:23:54.058Z,100503.40
2022-10-11T02:26:26.737Z,100503.20
2022-10-11T02:29:01.482Z,100501.60
2022-10-11T02:31:33.955Z,100499.80
2022-10-11T02:34:14.635Z,100512.60
2022-10-11T02:36:54.976Z,100513.00
2022-10-11T02:39:42.975Z,100520.00
2022-10-11T02:42:21.045Z,100523.40
2022-10-11T02:45:06.239Z,100523.60
2022-10-11T02:47:35.526Z,100529.20
2022-10-11T02:50:15.557Z,100528.20
2022-10-11T02:52:44.330Z,100529.80
2022-10-11T02:55:13.076Z,100531.40
2022-10-11T02:57:42.240Z,100533.20
2022-10-11T03:00:12.075Z,100535.80
2022-10-11T03:02:40.666Z,100538.60
2022-10-11T03:05:09.627Z,100540.20
2022-10-11T03:07:38.267Z,100544.80
2022-10-11T03:10:07.701Z,100543.00
2022-10-11T03:12:36.486Z,100545.20
2022-10-11T03:15:05.997Z,100554.20
2022-10-11T03:17:37.191Z,100558.00
2022-10-11T03:20:07.257Z,100565.00
2022-10-11T03:22:36.175Z,100569.00
2022-10-11T03:25:05.179Z,100576.80
2022-10-11T03:27:34.557Z,100577.80
2022-10-11T03:30:05.235Z,100580.80
2022-10-11T03:32:33.942Z,100590.20
2022-10-11T03:35:02.636Z,100589.80
2022-10-11T03:37:31.446Z,100591.00
2022-10-11T03:40:00.439Z,100597.80
2022-10-11T03:42:29.716Z,100599.00
2022-10-11T03:45:00.098Z,100604.40
2022-10-11T03:47:28.919Z,100600.60
2022-10-11T03:49:57.777Z,100611.80
2022-10-11T03:52:26.537Z,100615.40
2022-10-11T03:54:55.196Z,100615.20
2022-10-11T03:57:24.316Z,100620.00
2022-10-11T03:59:53.000Z,100619.00
2022-10-11T04:02:21.836Z,100619.00
2022-10-11T04:04:50.436Z,100616.60
2022-10-11T04:07:19.218Z,100616.20
2022-10-11T04:09:47.940Z,100623.00
2022-10-11T04:12:16.695Z,100627.80
2022-10-11T04:14:45.476Z,100634.20
2022-10-11T04:17:14.257Z,100637.40
2022-10-11T04:19:42.956Z,100642.80
2022-10-11T04:35:23.849Z,100666.00
2022-10-11T04:37:52.498Z,100668.40
2022-10-11T04:40:21.259Z,100665.00
2022-10-11T04:42:54.124Z,100666.40
2022-10-11T04:45:23.078Z,100667.20
2022-10-11T04:47:57.878Z,100670.20
2022-10-11T04:50:47.618Z,100673.00
2022-10-11T04:53:17.177Z,100673.40
2022-10-11T04:56:08.315Z,100678.40
2022-10-11T04:58:42.443Z,100684.60
2022-10-11T05:01:12.518Z,100686.60
2022-10-11T05:03:41.668Z,100691.40
2022-10-11T05:06:10.874Z,100698.00
2022-10-11T05:08:40.138Z,100702.20
2022-10-11T05:11:15.827Z,100704.80
2022-10-11T05:13:48.738Z,100704.40
2022-10-11T05:16:20.066Z,100708.40
2022-10-11T05:18:49.238Z,100714.60
2022-10-11T05:21:22.958Z,100718.40
2022-10-11T05:23:55.858Z,100722.00
2022-10-11T05:26:27.919Z,100722.00
2022-10-11T05:28:57.928Z,100733.80
2022-10-11T05:31:26.923Z,100736.60
2022-10-11T05:33:55.898Z,100742.20
2022-10-11T05:36:24.627Z,100742.00
2022-10-11T05:38:53.378Z,100745.60
2022-10-11T05:41:22.249Z,100748.40
2022-10-11T05:43:51.259Z,100752.80
2022-10-11T05:46:20.258Z,100753.80
2022-10-11T05:48:49.157Z,100761.20
2022-10-11T05:51:17.938Z,100769.60
2022-10-11T05:53:47.338Z,100772.40
2022-10-11T05:56:22.239Z,100775.60
2022-10-11T05:58:51.838Z,100777.40
2022-10-11T06:01:28.458Z,100785.60
2022-10-11T06:04:00.024Z,100788.20
2022-10-11T06:06:29.059Z,100791.60
2022-10-11T06:08:57.999Z,100797.20
2022-10-11T06:11:29.438Z,100807.20
2022-10-11T06:16:37.096Z,100826.00
2022-10-11T06:19:06.298Z,100831.60
2022-10-11T06:21:34.988Z,100843.00
2022-10-11T06:24:04.189Z,100845.80
2022-10-11T06:26:33.408Z,100847.20
2022-10-11T06:29:02.101Z,100848.00
2022-10-11T06:31:31.401Z,100854.80
2022-10-11T06:34:00.473Z,100860.80
2022-10-11T06:36:29.257Z,100863.00
2022-10-11T06:38:57.737Z,100863.00
2022-10-11T06:41:29.586Z,100866.40
2022-10-11T06:43:58.386Z,100870.00
2022-10-11T06:46:28.682Z,100876.40
2022-10-11T06:48:57.707Z,100883.00
2022-10-11T06:51:26.696Z,100883.80
2022-10-11T06:53:59.578Z,100884.00
2022-10-11T06:56:31.396Z,100885.20
2022-10-11T06:59:00.537Z,100887.20
2022-10-11T07:01:29.081Z,100890.60
2022-10-11T07:04:00.309Z,100893.60
2022-10-11T07:06:30.604Z,100898.20
2022-10-11T07:09:01.449Z,100896.80
2022-10-11T07:11:30.882Z,100901.40
2022-10-11T07:14:04.653Z,100910.20
2022-10-11T07:16:33.430Z,100913.80
2022-10-11T07:19:04.145Z,100916.80
2022-10-11T07:21:35.026Z,100923.40
2022-10-11T07:24:04.409Z,100926.80
2022-10-11T07:26:38.202Z,100929.60
2022-10-11T07:29:11.038Z,100940.00
2022-10-11T07:31:42.871Z,100936.40
2022-10-11T07:34:12.072Z,100936.40
2022-10-11T07:36:40.950Z,100941.80
2022-10-11T07:39:09.951Z,100941.60
2022-10-11T07:41:44.616Z,100941.80
2022-10-11T07:44:15.187Z,100941.60
2022-10-11T07:46:43.677Z,100944.80
2022-10-11T07:49:12.271Z,100950.20
2022-10-11T07:51:41.050Z,100946.80
2022-10-11T07:54:09.650Z,100948.60
2022-10-11T07:56:40.597Z,100949.60
2022-10-11T07:59:11.787Z,100959.00
2022-10-11T08:01:40.557Z,100958.80
2022-10-11T08:04:09.307Z,100963.60
2022-10-11T08:06:37.997Z,100960.60
2022-10-11T08:09:06.867Z,100969.00
2022-10-11T08:11:37.946Z,100968.40
2022-10-11T08:14:09.465Z,100970.60
2022-10-11T08:16:39.736Z,100971.40
2022-10-11T08:19:08.728Z,100972.80
2022-10-11T08:21:37.265Z,100975.40
2022-10-11T08:24:07.246Z,100977.60
2022-10-11T08:26:36.098Z,100973.80
2022-10-11T08:29:05.601Z,100975.40
2022-10-11T08:31:35.920Z,100979.40
2022-10-11T08:34:04.702Z,100982.40
2022-10-11T08:36:33.900Z,100980.40
2022-10-11T08:39:02.369Z,100980.60
2022-10-11T08:41:56.807Z,100979.80
2022-10-11T08:45:11.541Z,100978.60
2022-10-11T08:47:44.736Z,100980.00
2022-10-11T08:50:23.990Z,100984.20
2022-10-11T08:53:07.023Z,100982.00
2022-10-11T08:55:51.753Z,100987.00
2022-10-11T08:58:26.673Z,100991.20
2022-10-11T09:00:57.944Z,100994.80
2022-10-11T09:03:46.962Z,100994.80
2022-10-11T09:06:34.023Z,100995.20
2022-10-11T09:09:39.268Z,100993.80
2022-10-11T09:12:19.527Z,100992.20
2022-10-11T09:15:31.208Z,100994.00
2022-10-11T09:18:43.926Z,100999.80
2022-10-11T09:21:33.923Z,101000.40
2022-10-11T09:24:46.326Z,100999.80
2022-10-11T09:27:57.277Z,100999.60
2022-10-11T09:30:21.051Z,101000.00
2022-10-11T09:33:00.628Z,101001.40
2022-10-11T09:35:36.981Z,101001.60
2022-10-11T09:38:22.467Z,101000.20
2022-10-11T09:41:26.790Z,100998.00
2022-10-11T09:43:55.677Z,100997.20
2022-10-11T09:46:40.741Z,100994.60
2022-10-11T09:49:16.422Z,101000.00
2022-10-11T09:51:56.123Z,100996.00
2022-10-11T09:54:52.298Z,101000.00
2022-10-11T09:57:36.402Z,101002.00
2022-10-11T10:00:28.141Z,100999.20
2022-10-11T10:03:01.438Z,100999.00
2022-10-11T10:05:38.887Z,100996.80
2022-10-11T10:08:10.297Z,101000.40
2022-10-11T10:10:55.862Z,100997.20
2022-10-11T10:13:52.007Z,101002.20
2022-10-11T10:16:34.834Z,101006.40
2022-10-11T10:19:23.620Z,101008.60
2022-10-11T10:21:56.258Z,101001.20
2022-10-11T10:24:39.779Z,101002.80
2022-10-11T10:27:11.645Z,101005.60
2022-10-11T10:29:41.670Z,101006.20
2022-10-11T10:32:23.085Z,101006.60
2022-10-11T10:35:15.903Z,101007.60
2022-10-11T10:38:08.908Z,101012.00
2022-10-11T10:40:50.712Z,101009.60
2022-10-11T10:43:24.889Z,101010.00
2022-10-11T10:46:29.188Z,101008.00
2022-10-11T10:49:59.055Z,101007.60
2022-10-11T10:52:59.849Z,101012.20
2022-10-11T10:55:43.072Z,101012.40
2022-10-11T10:58:50.370Z,101010.20
2022-10-11T11:01:32.765Z,101013.20
2022-10-11T11:04:28.390Z,101011.80
2022-10-11T11:07:32.911Z,101010.40
2022-10-11T11:10:18.609Z,101012.60
2022-10-11T11:13:05.841Z,101010.60
2022-10-11T11:16:04.171Z,101012.80
2022-10-11T11:19:05.936Z,101004.00
2022-10-11T11:21:44.080Z,101004.80
2022-10-11T11:24:35.912Z,101007.00
2022-10-11T11:27:33.875Z,101005.60
2022-10-11T11:30:12.714Z,101011.60
2022-10-11T11:33:14.159Z,101011.00
2022-10-11T11:35:53.921Z,101010.60
2022-10-11T11:38:49.938Z,101008.20
2022-10-11T11:41:28.352Z,101010.00
2022-10-11T11:44:20.146Z,101011.20
2022-10-11T11:47:03.829Z,101017.20
2022-10-11T11:49:38.269Z,101009.60
2022-10-11T11:52:15.410Z,101011.60
2022-10-11T11:55:06.336Z,101006.60
2022-10-11T11:58:41.181Z,101006.40
2022-10-11T12:01:31.820Z,101015.00
2022-10-11T12:04:21.252Z,101003.00
2022-10-11T12:07:17.248Z,101005.60
2022-10-11T12:09:53.031Z,101003.80
2022-10-11T12:12:38.793Z,101006.60
2022-10-11T12:15:10.773Z,101000.00
2022-10-11T12:17:57.998Z,100995.20
2022-10-11T12:20:39.013Z,100991.40
2022-10-11T12:23:29.711Z,100991.20
2022-10-11T12:26:28.965Z,100994.80
2022-10-11T12:29:20.795Z,101001.00
2022-10-11T12:32:37.512Z,100997.80
2022-10-11T12:35:32.013Z,101004.40
2022-10-11T12:38:31.922Z,101004.20
2022-10-11T12:41:09.745Z,101008.20
2022-10-11T12:43:51.010Z,101005.80
2022-10-11T12:46:29.027Z,101001.40
2022-10-11T12:49:15.922Z,100997.60
2022-10-11T12:52:42.171Z,101002.00
2022-10-11T12:55:39.833Z,101001.80
2022-10-11T12:58:48.751Z,101004.00
2022-10-11T13:01:24.179Z,101001.80
2022-10-11T13:04:13.470Z,100995.40
2022-10-11T13:06:54.073Z,100994.20
2022-10-11T13:09:36.373Z,100995.80
2022-10-11T13:12:20.494Z,100998.60
2022-10-11T13:15:07.492Z,100998.60
2022-10-11T13:17:39.853Z,100996.20
2022-10-11T13:20:26.726Z,100997.20
2022-10-11T13:22:57.730Z,101000.20
2022-10-11T13:25:31.031Z,101003.60
2022-10-11T13:28:01.411Z,101002.40
2022-10-11T13:30:34.740Z,101005.80
2022-10-11T13:33:14.492Z,101007.00
2022-10-11T13:35:43.492Z,101006.80
2022-10-11T13:38:35.392Z,101008.60
2022-10-11T13:41:11.082Z,101003.00
2022-10-11T13:43:41.136Z,100997.80
2022-10-11T13:46:24.411Z,101000.20
2022-10-11T13:49:23.214Z,100997.80
2022-10-11T13:52:03.042Z,100995.60
2022-10-11T13:55:24.973Z,100993.60
2022-10-11T13:57:55.160Z,100996.00
2022-10-11T14:00:39.631Z,100993.40
2022-10-11T14:03:14.191Z,100995.60
2022-10-11T14:05:57.011Z,100998.00
2022-10-11T14:08:50.734Z,100997.40
2022-10-11T14:11:36.660Z,100997.00
2022-10-11T14:14:34.094Z,100996.60
2022-10-11T14:17:46.251Z,100993.20
2022-10-11T14:20:33.973Z,100998.40
2022-10-11T14:23:06.213Z,101001.00
2022-10-11T14:25:35.551Z,100999.60
2022-10-11T14:28:06.753Z,101003.80
2022-10-11T14:30:36.971Z,101006.20
2022-10-11T14:33:08.482Z,101003.80
2022-10-11T14:35:44.633Z,101005.20
2022-10-11T14:38:18.084Z,101010.20
2022-10-11T14:40:47.851Z,101005.20
2022-10-11T14:43:18.452Z,101007.60
2022-10-11T14:45:48.412Z,101004.20
2022-10-11T14:48:42.929Z,101006.00
2022-10-11T14:51:14.011Z,101006.40
2022-10-11T14:53:46.694Z,101003.00
2022-10-11T14:56:21.129Z,101010.40
2022-10-11T14:58:52.090Z,101012.60
2022-10-11T15:01:20.787Z,101013.20
2022-10-11T15:03:49.434Z,101012.40
2022-10-11T15:06:54.893Z,101013.00
2022-10-11T15:09:26.451Z,101014.00
2022-10-11T15:11:57.833Z,101011.00
2022-10-11T15:14:28.211Z,101012.00
2022-10-11T15:16:57.311Z,101010.60
2022-10-11T15:19:27.033Z,101010.60
2022-10-11T15:21:56.111Z,101018.00
2022-10-11T15:24:25.116Z,101014.20
2022-10-11T15:26:53.994Z,101018.20
2022-10-11T15:29:24.631Z,101023.40
2022-10-11T15:31:54.251Z,101025.20
2022-10-11T15:34:24.471Z,101024.40
2022-10-11T15:36:53.251Z,101019.80
2022-10-11T15:39:32.276Z,101021.80
2022-10-11T15:42:01.391Z,101024.60
2022-10-11T15:44:30.212Z,101031.80
2022-10-11T15:46:58.952Z,101026.40
2022-10-11T15:49:27.725Z,101032.40
2022-10-11T15:51:56.411Z,101029.00
2022-10-11T15:54:25.313Z,101027.20
2022-10-11T15:56:54.214Z,101032.80
2022-10-11T15:59:23.111Z,101036.20
2022-10-11T16:01:51.963Z,101037.20
2022-10-11T16:04:20.672Z,101038.40
2022-10-11T16:06:49.351Z,101043.60
2022-10-11T16:09:18.051Z,101042.80
2022-10-11T16:11:46.942Z,101044.60
2022-10-11T16:14:15.984Z,101044.00
2022-10-11T16:16:44.737Z,101046.40
2022-10-11T16:19:13.818Z,101048.40
2022-10-11T16:21:44.312Z,101049.60
2022-10-11T16:24:13.353Z,101051.20
2022-10-11T16:26:42.542Z,101052.00
2022-10-11T16:29:11.534Z,101056.00
2022-10-11T16:31:40.433Z,101055.00
2022-10-11T16:34:09.692Z,101059.60
2022-10-11T16:36:43.036Z,101056.80
2022-10-11T16:39:18.771Z,101055.20
2022-10-11T16:41:48.470Z,101056.60
2022-10-11T16:44:21.791Z,101061.40
2022-10-11T16:46:51.291Z,101071.60
2022-10-11T16:49:25.217Z,101076.20
2022-10-11T16:51:57.411Z,101076.20
2022-10-11T16:54:33.451Z,101079.60
2022-10-11T16:57:02.210Z,101077.60
2022-10-11T16:59:31.600Z,101082.40
2022-10-11T17:02:00.511Z,101083.20
2022-10-11T17:04:29.190Z,101080.80
2022-10-11T17:06:58.663Z,101084.40
2022-10-11T17:09:27.751Z,101091.00
2022-10-11T17:11:56.472Z,101094.60
2022-10-11T17:14:25.171Z,101096.00
2022-10-11T17:16:53.853Z,101097.40
2022-10-11T17:19:22.631Z,101092.80
2022-10-11T17:21:51.531Z,101100.40
2022-10-11T17:24:20.405Z,101098.00
2022-10-11T17:26:49.272Z,101104.20
2022-10-11T17:29:19.011Z,101105.20
2022-10-11T17:31:49.387Z,101106.00
2022-10-11T17:34:18.898Z,101114.20
2022-10-11T17:36:47.955Z,101113.00
2022-10-11T17:39:20.352Z,101114.20
2022-10-11T17:41:49.871Z,101120.80
2022-10-11T17:44:19.351Z,101115.60
2022-10-11T17:46:49.203Z,101116.20
2022-10-11T17:49:18.160Z,101120.60
2022-10-11T17:51:47.050Z,101115.60
2022-10-11T17:54:16.573Z,101116.60
2022-10-11T17:56:46.300Z,101115.20
2022-10-11T17:59:22.590Z,101114.40
2022-10-11T18:01:51.932Z,101117.40
2022-10-11T18:04:23.431Z,101120.60
2022-10-11T18:06:55.208Z,101120.40
2022-10-11T18:09:26.791Z,101123.80
2022-10-11T18:11:57.937Z,101121.60
2022-10-11T18:14:28.971Z,101121.00
2022-10-11T18:16:58.223Z,101127.00
2022-10-11T18:19:27.882Z,101130.40
2022-10-11T18:21:57.233Z,101131.80
2022-10-11T18:24:26.548Z,101128.20
2022-10-11T18:26:57.272Z,101128.80
2022-10-11T18:29:26.852Z,101131.00
2022-10-11T18:31:56.760Z,101134.20
2022-10-11T18:34:26.772Z,101134.00
2022-10-11T18:36:56.779Z,101133.80
2022-10-11T18:39:25.674Z,101132.40
2022-10-11T18:41:54.451Z,101131.40
2022-10-11T18:44:23.271Z,101133.20
2022-10-11T18:46:52.351Z,101135.40
2022-10-11T18:49:21.331Z,101133.20
2022-10-11T18:51:50.113Z,101132.60
2022-10-11T18:54:21.343Z,101135.00
2022-10-11T18:56:50.250Z,101128.80
2022-10-11T18:59:20.535Z,101127.20
2022-10-11T19:01:52.719Z,101125.80
2022-10-11T19:04:22.032Z,101125.00
2022-10-11T19:06:51.036Z,101133.00
2022-10-11T19:09:23.611Z,101131.00
2022-10-11T19:11:56.310Z,101132.60
2022-10-11T19:14:29.434Z,101133.60
2022-10-11T19:16:58.796Z,101131.00
2022-10-11T19:19:30.151Z,101139.20
2022-10-11T19:21:59.552Z,101133.20
2022-10-11T19:24:30.711Z,101135.40
2022-10-11T19:27:02.799Z,101133.60
2022-10-11T19:29:32.860Z,101139.00
2022-10-11T19:32:03.951Z,101141.20
2022-10-11T19:34:33.310Z,101140.80
2022-10-11T19:37:04.104Z,101140.60
2022-10-11T19:39:33.156Z,101136.60
2022-10-11T19:42:02.068Z,101135.80
2022-10-11T19:44:34.441Z,101137.20
2022-10-11T19:47:06.576Z,101140.40
2022-10-11T19:49:36.104Z,101140.20
2022-10-11T19:52:05.184Z,101135.80
2022-10-11T19:54:33.871Z,101144.00
2022-10-11T19:57:02.603Z,101147.20
2022-10-11T19:59:31.473Z,101146.40
2022-10-11T20:02:00.433Z,101148.60
2022-10-11T20:07:18.292Z,101149.00
2022-10-11T20:09:47.092Z,101149.40
2022-10-11T20:12:16.180Z,101149.40
2022-10-11T20:14:45.050Z,101149.40
2022-10-11T20:17:14.174Z,101150.20
2022-10-11T20:19:42.865Z,101153.80
2022-10-11T20:22:11.651Z,101154.20
2022-10-11T20:24:40.230Z,101153.40
2022-10-11T20:27:09.153Z,101157.60
2022-10-11T20:29:38.012Z,101160.40
2022-10-11T20:32:06.932Z,101162.40
2022-10-11T20:34:39.901Z,101160.60
2022-10-11T20:37:08.886Z,101160.20
2022-10-11T20:39:37.763Z,101165.00
2022-10-11T20:42:06.711Z,101164.40
2022-10-11T20:44:35.550Z,101164.60
2022-10-11T20:47:04.468Z,101160.80
2022-10-11T20:49:33.512Z,101163.40
2022-10-11T20:52:02.531Z,101161.80
2022-10-11T20:54:31.421Z,101166.40
2022-10-11T20:57:00.833Z,101165.40
2022-10-11T20:59:29.410Z,101164.60
2022-10-11T21:01:58.215Z,101166.00
2022-10-11T21:04:27.184Z,101164.20
2022-10-11T21:06:55.990Z,101163.80
2022-10-11T21:09:24.990Z,101160.40
2022-10-11T21:11:53.771Z,101164.00
2022-10-11T21:14:23.102Z,101163.20
2022-10-11T21:16:52.631Z,101163.00
2022-10-11T21:19:21.272Z,101164.60
2022-10-11T21:21:53.645Z,101167.80
2022-10-11T21:24:23.091Z,101168.20
2022-10-11T21:26:52.731Z,101168.60
2022-10-11T21:29:22.774Z,101168.40
2022-10-11T21:31:51.543Z,101172.60
2022-10-11T21:34:20.251Z,101175.20
2022-10-11T21:36:48.931Z,101174.80
2022-10-11T21:39:17.711Z,101175.00
2022-10-11T21:41:46.711Z,101173.60
2022-10-11T21:44:16.031Z,101168.60
2022-10-11T21:49:33.450Z,101170.00
2022-10-11T21:52:03.594Z,101171.00
2022-10-11T21:54:32.554Z,101170.80
2022-10-11T21:57:01.450Z,101171.80
2022-10-11T21:59:30.753Z,101173.40
2022-10-11T22:02:01.843Z,101175.40
2022-10-11T22:04:31.132Z,101174.60
2022-10-11T22:06:59.920Z,101177.40
2022-10-11T22:09:30.331Z,101171.40
2022-10-11T22:12:04.680Z,101167.80
2022-10-11T22:14:33.815Z,101165.20
2022-10-11T22:17:02.563Z,101166.20
2022-10-11T22:19:31.351Z,101162.40
2022-10-11T22:22:00.091Z,101168.60
2022-10-11T22:24:29.811Z,101164.20
2022-10-11T22:26:58.751Z,101171.80
2022-10-11T22:29:33.190Z,101169.20
2022-10-11T22:32:03.500Z,101175.00
2022-10-11T22:34:34.110Z,101175.20
2022-10-11T22:37:02.591Z,101173.60
2022-10-11T22:39:31.621Z,101174.40
2022-10-11T22:42:00.289Z,101175.00
2022-10-11T22:44:28.960Z,101176.60
2022-10-11T22:46:57.532Z,101179.00
2022-10-11T22:49:26.050Z,101176.00
2022-10-11T22:51:54.632Z,101180.80
2022-10-11T22:54:23.322Z,101176.80
2022-10-11T22:56:52.494Z,101171.80
2022-10-11T22:59:21.111Z,101171.20
2022-10-11T23:01:49.731Z,101177.00
2022-10-11T23:04:18.652Z,101179.40
2022-10-11T23:06:47.553Z,101181.20
2022-10-11T23:09:16.740Z,101183.60
2022-10-11T23:11:45.370Z,101180.00
2022-10-11T23:14:14.013Z,101175.00
2022-10-11T23:16:42.541Z,101174.80
2022-10-11T23:19:11.051Z,101174.20
2022-10-11T23:21:39.634Z,101175.80
2022-10-11T23:24:08.661Z,101174.40
2022-10-11T23:26:37.655Z,101174.00
2022-10-11T23:29:06.591Z,101175.20
2022-10-11T23:31:35.141Z,101177.80
2022-10-11T23:34:03.701Z,101176.80
2022-10-11T23:36:37.751Z,101180.40
2022-10-11T23:39:14.012Z,101179.80
2022-10-11T23:45:37.310Z,101175.20
2022-10-11T23:48:37.641Z,101175.20
2022-10-11T23:51:50.883Z,101179.60
2022-10-11T23:54:27.890Z,101184.00
2022-10-11T23:58:39.851Z,101183.20
